Accueil
METAR-TAF:

METAR-TAF

Aéroports :

Trévise, Italie

latitude: 45-41N, longitude: 012-06E, altitude: 45 m

Observation

Le bulletin a été fait il y a 30 minutes, à 07:55 UTC
Température 22°C
Humidité 65%
Pression 1029 hPa
Visibilité 10 km ou plus
Quelques nuages à une hauteur de 2500 ft

METAR: LIPS 270755Z /////KT 9999 FEW025 22/15 Q1029 RMK FEW VIS MIN 9999 WIND THR26 20004KT WIND THR08 2504KT BLU

Heure: 10:25 (08:25 UTC)

Prévision

Le bulletin a été fait il y a 3 heures et 25 minutes, à 05:00 UTC
Prévision valable du 27 à 06 UTC au 27 à 15 UTC
Vent 5 kt de nord/nord-est
Visibilité 10 km ou plus
pas de nuages en-dessous de 1500 mètres et pas de cumulonimbus.
Evoluant progressivement
du 27 à 10 UTC au 27 à 12 UTC
Vent 10 kt de est/sud-est

TAF: LIPS 270500Z 2706/2715 03005KT CAVOK BECMG 2710/2712 12010KT

Observations et prévisions météorologiques de plus de 4000 aéroports (messages METAR et TAF).

Les stations disponibles sont représentées par des disques jaunes et rouges sur la carte.

Passer la souris dessus pour voir le nom de la station.

Cliquer dessus pour voir les observations et prévisions météorologiques.

Pour changer de carte: cliquez sur les boutons verts avec une croix noire pour zoomer, sur le bouton vert avec un tiret pour effectuer un zoom arrière, ou sur les flèches vertes pour les cartes adjacentes.


METAR-TAF: